createdAt,value
2023-02-22T21:50:21.648Z,96640.81
2023-02-22T21:52:27.869Z,96634.81
2023-02-22T21:54:31.993Z,96656.47
2023-02-22T21:56:40.299Z,96661.91
2023-02-22T21:58:44.452Z,96663.72
2023-02-22T22:00:48.668Z,96654.31
2023-02-22T22:02:52.724Z,96653.81
2023-02-22T22:04:57.261Z,96644.97
2023-02-22T22:07:03.832Z,96633.53
2023-02-22T22:09:18.139Z,96620.69
2023-02-22T22:11:22.434Z,96620.06
2023-02-22T22:13:28.068Z,96617.97
2023-02-22T22:15:36.742Z,96609.19
2023-02-22T22:17:42.098Z,96630.34
2023-02-22T22:19:48.787Z,96639.50
2023-02-22T22:21:54.043Z,96644.56
2023-02-22T22:23:59.406Z,96634.13
2023-02-22T22:26:03.402Z,96638.34
2023-02-22T22:28:07.900Z,96633.94
2023-02-22T22:30:13.376Z,96638.19
2023-02-22T22:32:20.658Z,96635.44
2023-02-22T22:34:25.101Z,96636.25
2023-02-22T22:36:29.116Z,96638.84
2023-02-22T22:38:33.151Z,96636.25
2023-02-22T22:40:39.550Z,96640.47
2023-02-22T22:42:43.530Z,96638.69
2023-02-22T22:44:50.311Z,96638.53
2023-02-22T22:46:54.840Z,96637.56
2023-02-22T22:49:00.419Z,96635.09
2023-02-22T22:51:06.545Z,96624.69
2023-02-22T22:53:10.811Z,96633.31
2023-02-22T22:55:15.223Z,96635.91
2023-02-22T22:57:23.344Z,96630.69
2023-02-22T22:59:28.094Z,96628.94
2023-02-22T23:01:34.201Z,96635.75
2023-02-22T23:03:38.326Z,96632.34
2023-02-22T23:05:43.233Z,96635.75
2023-02-22T23:07:47.200Z,96632.19
2023-02-22T23:09:51.173Z,96640.00
2023-02-22T23:11:57.599Z,96633.16
2023-02-22T23:14:03.724Z,96643.44
2023-02-22T23:16:11.927Z,96640.81
2023-02-22T23:18:19.617Z,96637.41
2023-02-22T23:20:26.198Z,96641.78
2023-02-22T23:22:30.190Z,96638.38
2023-02-22T23:24:36.048Z,96640.81
2023-02-22T23:26:40.054Z,96636.41
2023-02-22T23:28:44.013Z,96639.03
2023-02-22T23:30:49.404Z,96637.22
2023-02-22T23:32:54.366Z,96636.41
2023-02-22T23:34:58.334Z,96637.41
2023-02-22T23:37:03.446Z,96633.00
2023-02-22T23:39:07.663Z,96633.00
2023-02-22T23:41:13.759Z,96637.41
2023-02-22T23:43:18.323Z,96633.00
2023-02-22T23:45:25.360Z,96628.75
2023-02-22T23:47:31.660Z,96626.97
2023-02-22T23:49:38.321Z,96629.59
2023-02-22T23:51:44.468Z,96623.53
2023-02-22T23:53:49.450Z,96622.72
2023-02-22T23:55:53.546Z,96623.53
2023-02-22T23:57:59.399Z,96624.53
